sensor_id;sensor_type;location;lat;lon;timestamp;pressure;altitude;pressure_sealevel;temperature;humidity
74893;BME280;63446;56.272;43.922;2022-10-16T00:00:35;101994.66;;;6.02;72.11
74893;BME280;63446;56.272;43.922;2022-10-16T00:03:02;101994.84;;;6.01;72.19
74893;BME280;63446;56.272;43.922;2022-10-16T00:05:28;101987.59;;;5.96;72.17
74893;BME280;63446;56.272;43.922;2022-10-16T00:07:54;101993.00;;;5.95;72.19
74893;BME280;63446;56.272;43.922;2022-10-16T00:10:20;102000.28;;;5.93;72.25
74893;BME280;63446;56.272;43.922;2022-10-16T00:12:45;101995.59;;;5.88;72.27
74893;BME280;63446;56.272;43.922;2022-10-16T00:15:11;101998.41;;;5.86;72.34
74893;BME280;63446;56.272;43.922;2022-10-16T00:17:37;101994.34;;;5.84;72.33
74893;BME280;63446;56.272;43.922;2022-10-16T00:20:03;102000.63;;;5.83;72.45
74893;BME280;63446;56.272;43.922;2022-10-16T00:22:48;102004.25;;;5.82;72.47
74893;BME280;63446;56.272;43.922;2022-10-16T00:25:15;102005.25;;;5.81;72.37
74893;BME280;63446;56.272;43.922;2022-10-16T00:27:41;102003.44;;;5.81;72.44
74893;BME280;63446;56.272;43.922;2022-10-16T00:30:07;101996.97;;;5.77;72.46
74893;BME280;63446;56.272;43.922;2022-10-16T00:32:33;102011.31;;;5.81;72.50
74893;BME280;63446;56.272;43.922;2022-10-16T00:34:59;102012.31;;;5.80;72.38
74893;BME280;63446;56.272;43.922;2022-10-16T00:37:25;102012.31;;;5.80;72.45
74893;BME280;63446;56.272;43.922;2022-10-16T00:39:51;102018.56;;;5.79;72.42
74893;BME280;63446;56.272;43.922;2022-10-16T00:42:18;102017.97;;;5.77;72.55
74893;BME280;63446;56.272;43.922;2022-10-16T00:44:53;102017.34;;;5.75;72.57
74893;BME280;63446;56.272;43.922;2022-10-16T00:47:29;102011.88;;;5.70;72.32
74893;BME280;63446;56.272;43.922;2022-10-16T00:52:34;102013.69;;;5.76;72.55
74893;BME280;63446;56.272;43.922;2022-10-16T00:55:02;102024.00;;;5.78;72.55
74893;BME280;63446;56.272;43.922;2022-10-16T00:57:29;102018.75;;;5.78;72.51
74893;BME280;63446;56.272;43.922;2022-10-16T00:59:56;102023.81;;;5.79;72.53
74893;BME280;63446;56.272;43.922;2022-10-16T01:02:22;102021.00;;;5.81;72.44
74893;BME280;63446;56.272;43.922;2022-10-16T01:04:50;102025.03;;;5.83;72.58
74893;BME280;63446;56.272;43.922;2022-10-16T01:10:27;102022.81;;;5.87;72.43
74893;BME280;63446;56.272;43.922;2022-10-16T01:13:09;102024.06;;;5.91;72.50
74893;BME280;63446;56.272;43.922;2022-10-16T01:21:09;102022.50;;;5.97;72.51
74893;BME280;63446;56.272;43.922;2022-10-16T01:23:43;102027.38;;;6.00;72.57
74893;BME280;63446;56.272;43.922;2022-10-16T01:28:51;102028.75;;;6.02;72.53
74893;BME280;63446;56.272;43.922;2022-10-16T01:31:20;102034.63;;;6.04;72.45
74893;BME280;63446;56.272;43.922;2022-10-16T01:36:53;102030.38;;;6.03;72.58
74893;BME280;63446;56.272;43.922;2022-10-16T01:39:29;102027.16;;;6.01;72.49
74893;BME280;63446;56.272;43.922;2022-10-16T01:42:16;102022.91;;;6.00;72.52
74893;BME280;63446;56.272;43.922;2022-10-16T01:44:43;102022.13;;;6.00;72.70
74893;BME280;63446;56.272;43.922;2022-10-16T01:47:12;102028.34;;;5.99;72.57
74893;BME280;63446;56.272;43.922;2022-10-16T01:49:40;102032.41;;;6.01;72.76
74893;BME280;63446;56.272;43.922;2022-10-16T01:52:13;102033.41;;;6.00;72.69
74893;BME280;63446;56.272;43.922;2022-10-16T01:54:42;102032.41;;;6.01;72.89
74893;BME280;63446;56.272;43.922;2022-10-16T01:57:10;102038.25;;;6.03;72.82
74893;BME280;63446;56.272;43.922;2022-10-16T01:59:42;102043.91;;;6.07;72.95
74893;BME280;63446;56.272;43.922;2022-10-16T02:02:10;102042.72;;;6.09;72.92
74893;BME280;63446;56.272;43.922;2022-10-16T02:04:38;102038.09;;;6.11;72.84
74893;BME280;63446;56.272;43.922;2022-10-16T02:07:06;102035.06;;;6.15;73.01
74893;BME280;63446;56.272;43.922;2022-10-16T02:09:33;102041.72;;;6.17;72.92
74893;BME280;63446;56.272;43.922;2022-10-16T02:12:05;102043.56;;;6.17;73.01
74893;BME280;63446;56.272;43.922;2022-10-16T02:14:32;102045.38;;;6.16;72.91
74893;BME280;63446;56.272;43.922;2022-10-16T02:16:58;102041.53;;;6.12;72.78
74893;BME280;63446;56.272;43.922;2022-10-16T02:19:24;102038.28;;;6.10;72.90
74893;BME280;63446;56.272;43.922;2022-10-16T02:24:34;102045.59;;;6.28;72.85
74893;BME280;63446;56.272;43.922;2022-10-16T02:27:10;102054.69;;;6.32;72.71
74893;BME280;63446;56.272;43.922;2022-10-16T02:29:47;102054.09;;;6.36;72.65
74893;BME280;63446;56.272;43.922;2022-10-16T02:32:20;102053.31;;;6.43;72.64
74893;BME280;63446;56.272;43.922;2022-10-16T02:34:49;102065.03;;;6.47;72.58
74893;BME280;63446;56.272;43.922;2022-10-16T02:37:16;102062.63;;;6.52;72.66
74893;BME280;63446;56.272;43.922;2022-10-16T02:39:44;102060.19;;;6.57;72.56
74893;BME280;63446;56.272;43.922;2022-10-16T02:42:12;102059.59;;;6.62;72.34
74893;BME280;63446;56.272;43.922;2022-10-16T02:44:38;102059.59;;;6.68;72.30
74893;BME280;63446;56.272;43.922;2022-10-16T02:47:04;102058.19;;;6.72;72.36
74893;BME280;63446;56.272;43.922;2022-10-16T02:49:30;102057.59;;;6.77;72.22
74893;BME280;63446;56.272;43.922;2022-10-16T02:51:55;102055.97;;;6.76;72.04
74893;BME280;63446;56.272;43.922;2022-10-16T02:54:21;102067.91;;;6.85;71.97
74893;BME280;63446;56.272;43.922;2022-10-16T02:56:47;102062.03;;;6.90;71.95
74893;BME280;63446;56.272;43.922;2022-10-16T02:59:13;102064.28;;;6.93;71.91
74893;BME280;63446;56.272;43.922;2022-10-16T03:01:39;102063.88;;;6.96;72.00
74893;BME280;63446;56.272;43.922;2022-10-16T03:04:05;102066.88;;;6.99;71.89
74893;BME280;63446;56.272;43.922;2022-10-16T03:06:31;102057.78;;;7.02;71.81
74893;BME280;63446;56.272;43.922;2022-10-16T03:08:57;102062.66;;;7.05;71.60
74893;BME280;63446;56.272;43.922;2022-10-16T03:11:23;102068.31;;;7.08;71.52
74893;BME280;63446;56.272;43.922;2022-10-16T03:13:49;102069.72;;;7.11;71.36
74893;BME280;63446;56.272;43.922;2022-10-16T03:16:14;102063.47;;;7.12;71.49
74893;BME280;63446;56.272;43.922;2022-10-16T03:18:40;102059.81;;;7.13;71.23
74893;BME280;63446;56.272;43.922;2022-10-16T03:21:06;102064.66;;;7.16;71.17
74893;BME280;63446;56.272;43.922;2022-10-16T03:23:32;102067.88;;;7.18;71.01
74893;BME280;63446;56.272;43.922;2022-10-16T03:25:58;102068.91;;;7.17;71.09
74893;BME280;63446;56.272;43.922;2022-10-16T03:28:24;102064.84;;;7.21;71.21
74893;BME280;63446;56.272;43.922;2022-10-16T03:30:50;102072.34;;;7.24;71.18
74893;BME280;63446;56.272;43.922;2022-10-16T03:33:16;102075.56;;;7.26;71.14
74893;BME280;63446;56.272;43.922;2022-10-16T03:35:42;102071.94;;;7.27;71.06
74893;BME280;63446;56.272;43.922;2022-10-16T03:38:08;102073.31;;;7.30;70.93
74893;BME280;63446;56.272;43.922;2022-10-16T03:40:33;102071.94;;;7.27;70.88
74893;BME280;63446;56.272;43.922;2022-10-16T03:42:59;102080.81;;;7.33;70.73
74893;BME280;63446;56.272;43.922;2022-10-16T03:45:25;102075.38;;;7.34;70.84
74893;BME280;63446;56.272;43.922;2022-10-16T03:47:51;102083.84;;;7.37;70.69
74893;BME280;63446;56.272;43.922;2022-10-16T03:50:17;102075.56;;;7.33;70.49
74893;BME280;63446;56.272;43.922;2022-10-16T03:52:43;102082.41;;;7.41;70.61
74893;BME280;63446;56.272;43.922;2022-10-16T03:55:09;102090.13;;;7.42;70.52
74893;BME280;63446;56.272;43.922;2022-10-16T03:57:35;102096.78;;;7.45;70.42
74893;BME280;63446;56.272;43.922;2022-10-16T04:00:01;102079.19;;;7.39;70.49
74893;BME280;63446;56.272;43.922;2022-10-16T04:02:38;102083.84;;;7.50;70.44
74893;BME280;63446;56.272;43.922;2022-10-16T04:05:04;102090.50;;;7.52;70.37
74893;BME280;63446;56.272;43.922;2022-10-16T04:07:30;102081.97;;;7.57;70.40
74893;BME280;63446;56.272;43.922;2022-10-16T04:09:56;102097.34;;;7.60;70.30
74893;BME280;63446;56.272;43.922;2022-10-16T04:12:24;102088.84;;;7.65;70.16
74893;BME280;63446;56.272;43.922;2022-10-16T04:14:50;102100.38;;;7.70;69.99
74893;BME280;63446;56.272;43.922;2022-10-16T04:17:16;102097.34;;;7.73;70.04
74893;BME280;63446;56.272;43.922;2022-10-16T04:19:42;102096.09;;;7.76;69.93
74893;BME280;63446;56.272;43.922;2022-10-16T04:22:08;102090.03;;;7.75;69.72
74893;BME280;63446;56.272;43.922;2022-10-16T04:24:34;102093.28;;;7.77;69.75
74893;BME280;63446;56.272;43.922;2022-10-16T04:27:00;102108.22;;;7.83;69.74
74893;BME280;63446;56.272;43.922;2022-10-16T04:29:26;102095.66;;;7.86;69.66
74893;BME280;63446;56.272;43.922;2022-10-16T04:31:51;102098.09;;;7.87;69.56
74893;BME280;63446;56.272;43.922;2022-10-16T04:34:17;102107.81;;;7.87;69.51
74893;BME280;63446;56.272;43.922;2022-10-16T04:36:43;102107.81;;;7.87;69.39
74893;BME280;63446;56.272;43.922;2022-10-16T04:39:09;102105.41;;;7.85;69.39
74893;BME280;63446;56.272;43.922;2022-10-16T04:41:35;102106.19;;;7.86;69.46
74893;BME280;63446;56.272;43.922;2022-10-16T04:44:01;102109.84;;;7.85;69.36
74893;BME280;63446;56.272;43.922;2022-10-16T04:46:26;102105.19;;;7.87;69.43
74893;BME280;63446;56.272;43.922;2022-10-16T04:48:53;102097.50;;;7.85;69.61
74893;BME280;63446;56.272;43.922;2022-10-16T04:51:19;102109.56;;;8.06;69.33
74893;BME280;63446;56.272;43.922;2022-10-16T04:53:45;102097.94;;;8.27;69.12
74893;BME280;63446;56.272;43.922;2022-10-16T04:56:11;102087.69;;;8.50;68.54
74893;BME280;63446;56.272;43.922;2022-10-16T04:58:37;102104.53;;;8.81;68.17
74893;BME280;63446;56.272;43.922;2022-10-16T05:01:03;102108.03;;;9.00;67.64
74893;BME280;63446;56.272;43.922;2022-10-16T05:03:29;102123.59;;;9.08;67.36
74893;BME280;63446;56.272;43.922;2022-10-16T05:05:55;102110.06;;;8.98;67.15
74893;BME280;63446;56.272;43.922;2022-10-16T05:08:23;102131.53;;;9.01;67.30
74893;BME280;63446;56.272;43.922;2022-10-16T05:10:48;102134.44;;;8.93;67.47
74893;BME280;63446;56.272;43.922;2022-10-16T05:13:14;102132.28;;;8.84;67.57
74893;BME280;63446;56.272;43.922;2022-10-16T05:15:40;102124.22;;;8.78;67.59
74893;BME280;63446;56.272;43.922;2022-10-16T05:18:07;102136.16;;;8.81;67.67
74893;BME280;63446;56.272;43.922;2022-10-16T05:20:33;102135.88;;;8.96;67.64
74893;BME280;63446;56.272;43.922;2022-10-16T05:22:59;102143.63;;;9.16;67.33
74893;BME280;63446;56.272;43.922;2022-10-16T05:25:25;102137.50;;;9.40;66.86
74893;BME280;63446;56.272;43.922;2022-10-16T05:27:51;102143.56;;;9.66;66.40
74893;BME280;63446;56.272;43.922;2022-10-16T05:30:17;102142.50;;;9.92;65.76
74893;BME280;63446;56.272;43.922;2022-10-16T05:32:49;102148.47;;;10.17;65.36
74893;BME280;63446;56.272;43.922;2022-10-16T05:35:16;102144.38;;;10.40;64.84
74893;BME280;63446;56.272;43.922;2022-10-16T05:37:44;102151.22;;;10.59;64.26
74893;BME280;63446;56.272;43.922;2022-10-16T05:40:10;102139.75;;;10.65;64.04
74893;BME280;63446;56.272;43.922;2022-10-16T05:42:36;102149.22;;;10.73;63.84
74893;BME280;63446;56.272;43.922;2022-10-16T05:45:04;102143.16;;;10.84;63.69
74893;BME280;63446;56.272;43.922;2022-10-16T05:47:30;102149.47;;;11.07;63.44
74893;BME280;63446;56.272;43.922;2022-10-16T05:49:55;102130.53;;;11.33;63.05
74893;BME280;63446;56.272;43.922;2022-10-16T05:52:21;102134.41;;;11.78;62.23
74893;BME280;63446;56.272;43.922;2022-10-16T05:54:47;102125.38;;;12.14;61.43
74893;BME280;63446;56.272;43.922;2022-10-16T05:57:13;102136.66;;;12.50;61.01
74893;BME280;63446;56.272;43.922;2022-10-16T05:59:40;102143.75;;;12.61;60.52
74893;BME280;63446;56.272;43.922;2022-10-16T06:02:05;102145.91;;;12.64;60.16
74893;BME280;63446;56.272;43.922;2022-10-16T06:04:32;102132.97;;;12.67;60.04
74893;BME280;63446;56.272;43.922;2022-10-16T06:07:00;102138.63;;;12.88;59.94
74893;BME280;63446;56.272;43.922;2022-10-16T06:09:27;102147.16;;;13.07;59.80
74893;BME280;63446;56.272;43.922;2022-10-16T06:11:52;102145.16;;;13.31;59.10
74893;BME280;63446;56.272;43.922;2022-10-16T06:14:19;102139.19;;;13.57;58.48
74893;BME280;63446;56.272;43.922;2022-10-16T06:16:44;102154.50;;;13.94;58.03
74893;BME280;63446;56.272;43.922;2022-10-16T06:19:10;102150.78;;;14.17;57.82
74893;BME280;63446;56.272;43.922;2022-10-16T06:21:36;102148.63;;;14.36;57.36
74893;BME280;63446;56.272;43.922;2022-10-16T06:24:01;102155.66;;;14.47;56.83
74893;BME280;63446;56.272;43.922;2022-10-16T06:26:29;102157.84;;;14.50;56.54
74893;BME280;63446;56.272;43.922;2022-10-16T06:28:58;102149.75;;;14.45;56.14
74893;BME280;63446;56.272;43.922;2022-10-16T06:31:24;102152.38;;;14.40;55.95
74893;BME280;63446;56.272;43.922;2022-10-16T06:33:56;102155.75;;;14.30;56.12
74893;BME280;63446;56.272;43.922;2022-10-16T06:36:23;102152.16;;;14.20;56.10
74893;BME280;63446;56.272;43.922;2022-10-16T06:38:50;102150.69;;;14.07;56.29
74893;BME280;63446;56.272;43.922;2022-10-16T06:41:18;102152.44;;;13.96;56.26
74893;BME280;63446;56.272;43.922;2022-10-16T06:43:45;102154.69;;;13.87;56.73
74893;BME280;63446;56.272;43.922;2022-10-16T06:46:12;102154.00;;;13.75;56.59
74893;BME280;63446;56.272;43.922;2022-10-16T06:48:38;102153.09;;;13.64;56.49
74893;BME280;63446;56.272;43.922;2022-10-16T06:51:06;102160.09;;;13.54;56.78
74893;BME280;63446;56.272;43.922;2022-10-16T06:53:35;102150.13;;;13.44;56.90
74893;BME280;63446;56.272;43.922;2022-10-16T06:58:37;102155.22;;;13.29;57.23
74893;BME280;63446;56.272;43.922;2022-10-16T07:01:04;102156.41;;;13.21;57.39
74893;BME280;63446;56.272;43.922;2022-10-16T07:03:30;102152.06;;;13.15;57.49
74893;BME280;63446;56.272;43.922;2022-10-16T07:05:56;102161.78;;;13.09;57.51
74893;BME280;63446;56.272;43.922;2022-10-16T07:08:22;102155.59;;;13.04;57.49
74893;BME280;63446;56.272;43.922;2022-10-16T07:10:48;102147.31;;;13.00;57.46
74893;BME280;63446;56.272;43.922;2022-10-16T07:13:15;102147.00;;;12.97;57.55
74893;BME280;63446;56.272;43.922;2022-10-16T07:15:41;102147.47;;;12.93;57.56
74893;BME280;63446;56.272;43.922;2022-10-16T07:18:07;102145.06;;;12.92;57.66
74893;BME280;63446;56.272;43.922;2022-10-16T07:20:32;102147.47;;;12.93;57.57
74893;BME280;63446;56.272;43.922;2022-10-16T07:22:59;102155.50;;;12.99;57.79
74893;BME280;63446;56.272;43.922;2022-10-16T07:25:24;102154.81;;;13.03;57.66
74893;BME280;63446;56.272;43.922;2022-10-16T07:27:50;102164.91;;;13.06;57.61
74893;BME280;63446;56.272;43.922;2022-10-16T07:30:16;102170.47;;;13.05;57.79
74893;BME280;63446;56.272;43.922;2022-10-16T07:32:42;102165.66;;;13.02;57.88
74893;BME280;63446;56.272;43.922;2022-10-16T07:35:08;102145.53;;;12.89;58.05
74893;BME280;63446;56.272;43.922;2022-10-16T07:37:34;102163.47;;;12.82;58.29
74893;BME280;63446;56.272;43.922;2022-10-16T07:40:00;102164.13;;;12.60;58.56
74893;BME280;63446;56.272;43.922;2022-10-16T07:42:27;102167.13;;;12.35;58.78
74893;BME280;63446;56.272;43.922;2022-10-16T07:44:52;102160.63;;;12.14;59.40
74893;BME280;63446;56.272;43.922;2022-10-16T07:47:18;102168.00;;;12.12;59.66
74893;BME280;63446;56.272;43.922;2022-10-16T07:49:44;102157.78;;;12.04;60.01
74893;BME280;63446;56.272;43.922;2022-10-16T07:52:10;102169.63;;;12.13;60.30
74893;BME280;63446;56.272;43.922;2022-10-16T07:54:36;102171.47;;;12.13;59.85
74893;BME280;63446;56.272;43.922;2022-10-16T07:57:01;102171.34;;;12.19;59.92
74893;BME280;63446;56.272;43.922;2022-10-16T07:59:28;102162.94;;;12.23;59.87
74893;BME280;63446;56.272;43.922;2022-10-16T08:01:53;102170.16;;;12.27;59.75
74893;BME280;63446;56.272;43.922;2022-10-16T08:04:20;102154.25;;;12.27;59.83
74893;BME280;63446;56.272;43.922;2022-10-16T08:06:46;102164.16;;;12.32;59.84
74893;BME280;63446;56.272;43.922;2022-10-16T08:09:12;102155.72;;;12.35;59.89
74893;BME280;63446;56.272;43.922;2022-10-16T08:11:38;102154.69;;;12.36;59.64
74893;BME280;63446;56.272;43.922;2022-10-16T08:14:03;102159.53;;;12.39;59.67
74893;BME280;63446;56.272;43.922;2022-10-16T08:16:29;102157.66;;;12.39;59.57
74893;BME280;63446;56.272;43.922;2022-10-16T08:18:55;102159.06;;;12.42;59.57
74893;BME280;63446;56.272;43.922;2022-10-16T08:21:22;102156.94;;;12.44;59.55
74893;BME280;63446;56.272;43.922;2022-10-16T08:23:52;102154.88;;;12.46;60.02
74893;BME280;63446;56.272;43.922;2022-10-16T08:26:18;102159.47;;;12.51;59.97
74893;BME280;63446;56.272;43.922;2022-10-16T08:28:44;102152.41;;;12.56;60.24
74893;BME280;63446;56.272;43.922;2022-10-16T08:31:15;102150.66;;;12.62;60.05
74893;BME280;63446;56.272;43.922;2022-10-16T08:33:43;102155.25;;;12.66;60.05
74893;BME280;63446;56.272;43.922;2022-10-16T08:36:11;102160.28;;;12.68;60.06
74893;BME280;63446;56.272;43.922;2022-10-16T08:38:38;102154.28;;;12.73;60.02
74893;BME280;63446;56.272;43.922;2022-10-16T08:43:51;102151.41;;;12.91;59.49
74893;BME280;63446;56.272;43.922;2022-10-16T08:48:57;102148.31;;;13.28;59.20
74893;BME280;63446;56.272;43.922;2022-10-16T08:51:27;102139.81;;;13.48;59.06
74893;BME280;63446;56.272;43.922;2022-10-16T08:53:57;102140.53;;;13.60;58.72
74893;BME280;63446;56.272;43.922;2022-10-16T08:56:24;102143.06;;;13.72;58.22
74893;BME280;63446;56.272;43.922;2022-10-16T08:58:52;102147.66;;;13.76;58.24
74893;BME280;63446;56.272;43.922;2022-10-16T09:01:19;102151.66;;;13.79;58.42
74893;BME280;63446;56.272;43.922;2022-10-16T09:17:06;102147.16;;;13.57;57.96
74893;BME280;63446;56.272;43.922;2022-10-16T09:19:46;102142.31;;;13.54;58.26
74893;BME280;63446;56.272;43.922;2022-10-16T09:22:16;102143.91;;;13.55;58.17
74893;BME280;63446;56.272;43.922;2022-10-16T09:24:43;102137.81;;;13.55;58.05
74893;BME280;63446;56.272;43.922;2022-10-16T09:27:11;102133.78;;;13.52;57.65
74893;BME280;63446;56.272;43.922;2022-10-16T09:29:37;102131.84;;;13.48;57.67
74893;BME280;63446;56.272;43.922;2022-10-16T09:32:12;102146.03;;;13.53;57.81
74893;BME280;63446;56.272;43.922;2022-10-16T09:34:43;102141.53;;;13.54;58.23
74893;BME280;63446;56.272;43.922;2022-10-16T09:37:17;102130.47;;;13.45;58.22
74893;BME280;63446;56.272;43.922;2022-10-16T09:39:54;102151.41;;;13.58;58.09
74893;BME280;63446;56.272;43.922;2022-10-16T09:42:27;102139.88;;;13.53;58.19
74893;BME280;63446;56.272;43.922;2022-10-16T09:44:56;102144.22;;;13.59;57.80
74893;BME280;63446;56.272;43.922;2022-10-16T09:47:29;102148.25;;;13.61;57.94
74893;BME280;63446;56.272;43.922;2022-10-16T09:50:03;102141.84;;;13.57;57.67
74893;BME280;63446;56.272;43.922;2022-10-16T09:52:32;102150.91;;;13.61;57.91
74893;BME280;63446;56.272;43.922;2022-10-16T09:55:13;102154.06;;;13.58;57.87
74893;BME280;63446;56.272;43.922;2022-10-16T09:57:54;102138.53;;;13.50;57.95
74893;BME280;63446;56.272;43.922;2022-10-16T10:00:22;102142.31;;;13.54;57.99
74893;BME280;63446;56.272;43.922;2022-10-16T10:02:49;102144.91;;;13.49;58.27
74893;BME280;63446;56.272;43.922;2022-10-16T10:05:24;102147.78;;;13.48;58.05
74893;BME280;63446;56.272;43.922;2022-10-16T10:07:59;102147.47;;;13.44;58.45
74893;BME280;63446;56.272;43.922;2022-10-16T10:10:31;102132.53;;;13.38;58.31
74893;BME280;63446;56.272;43.922;2022-10-16T10:12:57;102138.56;;;13.33;58.52
74893;BME280;63446;56.272;43.922;2022-10-16T10:15:24;102139.28;;;13.29;58.77
74893;BME280;63446;56.272;43.922;2022-10-16T10:17:54;102141.06;;;13.23;58.99
74893;BME280;63446;56.272;43.922;2022-10-16T10:22:53;102137.16;;;13.14;59.20
74893;BME280;63446;56.272;43.922;2022-10-16T10:33:27;102128.81;;;13.05;59.51
74893;BME280;63446;56.272;43.922;2022-10-16T10:44:35;102119.97;;;13.16;59.14
74893;BME280;63446;56.272;43.922;2022-10-16T10:49:42;102123.75;;;13.20;59.00
74893;BME280;63446;56.272;43.922;2022-10-16T10:57:32;102119.66;;;13.30;58.73
74893;BME280;63446;56.272;43.922;2022-10-16T11:00:19;102110.72;;;13.36;58.51
74893;BME280;63446;56.272;43.922;2022-10-16T11:02:53;102126.53;;;13.48;58.38
74893;BME280;63446;56.272;43.922;2022-10-16T11:05:36;102124.22;;;13.51;57.91
74893;BME280;63446;56.272;43.922;2022-10-16T11:10:54;102123.78;;;13.59;57.33
74893;BME280;63446;56.272;43.922;2022-10-16T11:13:30;102127.56;;;13.63;57.11
74893;BME280;63446;56.272;43.922;2022-10-16T11:16:02;102127.88;;;13.67;56.60
74893;BME280;63446;56.272;43.922;2022-10-16T11:18:49;102129.72;;;13.66;56.61
74893;BME280;63446;56.272;43.922;2022-10-16T11:21:19;102128.66;;;13.67;56.45
74893;BME280;63446;56.272;43.922;2022-10-16T11:23:56;102140.09;;;13.68;56.43
74893;BME280;63446;56.272;43.922;2022-10-16T11:26:30;102124.09;;;13.63;56.08
74893;BME280;63446;56.272;43.922;2022-10-16T11:29:01;102130.84;;;13.71;55.70
74893;BME280;63446;56.272;43.922;2022-10-16T11:31:36;102127.31;;;13.65;55.65
74893;BME280;63446;56.272;43.922;2022-10-16T11:36:47;102134.72;;;13.63;55.92
74893;BME280;63446;56.272;43.922;2022-10-16T11:39:28;102132.31;;;13.61;55.99
74893;BME280;63446;56.272;43.922;2022-10-16T11:44:44;102127.97;;;13.55;56.18
74893;BME280;63446;56.272;43.922;2022-10-16T11:49:58;102136.19;;;13.54;55.89
74893;BME280;63446;56.272;43.922;2022-10-16T11:52:30;102126.88;;;13.51;56.02
74893;BME280;63446;56.272;43.922;2022-10-16T11:55:21;102117.63;;;13.37;56.47
74893;BME280;63446;56.272;43.922;2022-10-16T11:57:53;102133.22;;;13.50;56.33
74893;BME280;63446;56.272;43.922;2022-10-16T12:00:24;102133.47;;;13.49;56.14
74893;BME280;63446;56.272;43.922;2022-10-16T12:06:11;102135.09;;;13.50;55.89
74893;BME280;63446;56.272;43.922;2022-10-16T12:08:40;102130.81;;;13.49;55.81
74893;BME280;63446;56.272;43.922;2022-10-16T12:11:33;102128.97;;;13.49;55.93
74893;BME280;63446;56.272;43.922;2022-10-16T12:17:01;102123.09;;;13.47;56.43
74893;BME280;63446;56.272;43.922;2022-10-16T12:19:29;102112.31;;;13.37;56.67
74893;BME280;63446;56.272;43.922;2022-10-16T12:21:57;102123.81;;;13.42;56.28
74893;BME280;63446;56.272;43.922;2022-10-16T12:24:39;102121.09;;;13.37;56.53
74893;BME280;63446;56.272;43.922;2022-10-16T12:29:56;102124.16;;;13.29;56.33
74893;BME280;63446;56.272;43.922;2022-10-16T12:32:28;102114.53;;;13.23;56.45
74893;BME280;63446;56.272;43.922;2022-10-16T12:34:55;102123.69;;;13.15;56.67
74893;BME280;63446;56.272;43.922;2022-10-16T12:37:24;102116.03;;;13.02;56.96
74893;BME280;63446;56.272;43.922;2022-10-16T12:39:55;102119.97;;;13.00;56.84
74893;BME280;63446;56.272;43.922;2022-10-16T12:44:53;102116.28;;;12.84;57.22
74893;BME280;63446;56.272;43.922;2022-10-16T12:47:36;102114.25;;;12.74;57.48
74893;BME280;63446;56.272;43.922;2022-10-16T12:50:24;102111.66;;;12.62;57.92
74893;BME280;63446;56.272;43.922;2022-10-16T12:52:49;102116.91;;;12.57;58.15
74893;BME280;63446;56.272;43.922;2022-10-16T12:55:18;102120.75;;;12.50;58.60
74893;BME280;63446;56.272;43.922;2022-10-16T13:00:28;102110.34;;;12.31;58.97
74893;BME280;63446;56.272;43.922;2022-10-16T13:08:38;102105.91;;;12.08;59.46
74893;BME280;63446;56.272;43.922;2022-10-16T13:11:29;102113.44;;;12.00;59.73
74893;BME280;63446;56.272;43.922;2022-10-16T13:19:38;102117.38;;;11.73;59.74
74893;BME280;63446;56.272;43.922;2022-10-16T13:22:18;102120.59;;;11.64;59.76
74893;BME280;63446;56.272;43.922;2022-10-16T13:30:31;102117.88;;;11.35;60.30
74893;BME280;63446;56.272;43.922;2022-10-16T13:35:36;102134.22;;;11.20;60.60
74893;BME280;63446;56.272;43.922;2022-10-16T13:40:30;102138.69;;;11.08;61.17
74893;BME280;63446;56.272;43.922;2022-10-16T13:42:59;102137.75;;;11.03;61.42
74893;BME280;63446;56.272;43.922;2022-10-16T13:45:26;102133.38;;;10.96;61.49
74893;BME280;63446;56.272;43.922;2022-10-16T13:48:05;102132.69;;;10.89;61.65
74893;BME280;63446;56.272;43.922;2022-10-16T13:50:32;102136.22;;;10.83;61.90
74893;BME280;63446;56.272;43.922;2022-10-16T13:53:13;102133.09;;;10.74;62.10
74893;BME280;63446;56.272;43.922;2022-10-16T13:55:39;102125.38;;;10.61;62.24
74893;BME280;63446;56.272;43.922;2022-10-16T13:58:08;102135.34;;;10.59;62.58
74893;BME280;63446;56.272;43.922;2022-10-16T14:00:35;102135.22;;;10.54;62.94
74893;BME280;63446;56.272;43.922;2022-10-16T14:03:04;102126.66;;;10.40;63.11
74893;BME280;63446;56.272;43.922;2022-10-16T14:05:31;102130.34;;;10.39;63.32
74893;BME280;63446;56.272;43.922;2022-10-16T14:07:58;102134.66;;;10.34;63.51
74893;BME280;63446;56.272;43.922;2022-10-16T14:10:25;102143.50;;;10.27;63.68
74893;BME280;63446;56.272;43.922;2022-10-16T14:12:57;102144.34;;;10.21;63.57
74893;BME280;63446;56.272;43.922;2022-10-16T14:15:24;102138.13;;;10.16;63.73
74893;BME280;63446;56.272;43.922;2022-10-16T14:17:51;102141.22;;;10.13;64.01
74893;BME280;63446;56.272;43.922;2022-10-16T14:20:18;102143.50;;;10.09;64.13
74893;BME280;63446;56.272;43.922;2022-10-16T14:22:46;102147.59;;;10.05;64.36
74893;BME280;63446;56.272;43.922;2022-10-16T14:28:14;102139.97;;;9.97;64.86
74893;BME280;63446;56.272;43.922;2022-10-16T14:33:41;102146.56;;;9.88;65.23
74893;BME280;63446;56.272;43.922;2022-10-16T14:38:47;102140.22;;;9.77;65.54
74893;BME280;63446;56.272;43.922;2022-10-16T14:41:14;102142.69;;;9.72;65.87
74893;BME280;63446;56.272;43.922;2022-10-16T14:43:42;102143.13;;;9.69;65.94
74893;BME280;63446;56.272;43.922;2022-10-16T14:46:20;102145.59;;;9.64;66.06
74893;BME280;63446;56.272;43.922;2022-10-16T14:48:49;102145.84;;;9.62;66.10
74893;BME280;63446;56.272;43.922;2022-10-16T14:51:18;102139.44;;;9.51;66.48
74893;BME280;63446;56.272;43.922;2022-10-16T14:53:44;102153.63;;;9.57;66.48
74893;BME280;63446;56.272;43.922;2022-10-16T14:56:21;102142.69;;;9.53;66.65